Time;durP1;ratioP1;P1;durP2;ratioP2;P2;SDS_P1;SDS_P2;PMS_P1;PMS_P2;Temp;Humidity;BMP_temperature;BMP_pressure;BME280_temperature;BME280_humidity;BME280_pressure;Samples;Min_cycle;Max_cycle;Signal;HPM_P1;HPM_P2
2022/03/29 00:01:54;;;;;;;15.18;6.70;;;;;;;8.45;68.20;101601.13;4976109;28;20022;-81
2022/03/29 00:04:19;;;;;;;13.23;5.87;;;;;;;8.44;67.92;101602.88;4975077;28;20034;-81
2022/03/29 00:06:45;;;;;;;11.85;5.68;;;;;;;8.44;69.13;101604.56;4976091;28;20071;-81
2022/03/29 00:09:10;;;;;;;18.25;7.82;;;;;;;8.37;72.17;101606.25;4976143;28;20081;-81
2022/03/29 00:11:35;;;;;;;17.03;7.10;;;;;;;8.32;68.79;101600.22;4974966;28;20137;-81
2022/03/29 00:14:02;;;;;;;16.80;7.82;;;;;;;8.25;69.70;101593.25;4976175;28;20023;-81
2022/03/29 00:16:28;;;;;;;17.63;7.53;;;;;;;8.22;70.97;101588.94;4975653;28;20027;-81
2022/03/29 00:18:53;;;;;;;17.90;7.97;;;;;;;8.17;70.84;101596.66;4975362;28;20101;-81
2022/03/29 00:21:18;;;;;;;16.55;7.60;;;;;;;8.14;70.84;101591.47;4976100;28;20029;-80
2022/03/29 00:23:46;;;;;;;16.73;7.83;;;;;;;8.12;71.16;101602.66;4975684;28;20062;-81
2022/03/29 00:26:12;;;;;;;13.82;6.35;;;;;;;8.09;69.99;101592.28;4974761;28;20110;-81
2022/03/29 00:28:37;;;;;;;13.07;5.73;;;;;;;8.07;69.67;101589.69;4975103;28;20106;-81
2022/03/29 00:31:03;;;;;;;14.90;6.53;;;;;;;8.03;72.12;101582.75;4975304;28;20058;-81
2022/03/29 00:33:28;;;;;;;15.47;6.97;;;;;;;8.02;70.60;101592.25;4974701;28;20054;-81
2022/03/29 00:35:53;;;;;;;13.23;6.33;;;;;;;8.00;71.39;101580.16;4975392;28;20019;-81
2022/03/29 00:38:21;;;;;;;14.20;6.50;;;;;;;7.97;69.83;101583.59;4975395;28;20081;-81
2022/03/29 00:40:47;;;;;;;14.30;6.22;;;;;;;7.99;70.48;101575.84;4974866;28;20034;-81
2022/03/29 00:43:12;;;;;;;11.90;5.60;;;;;;;7.96;70.10;101565.50;4975368;28;20053;-81
2022/03/29 00:45:37;;;;;;;12.47;5.53;;;;;;;7.97;71.18;101569.81;4974986;28;20038;-81
2022/03/29 00:48:03;;;;;;;10.67;5.27;;;;;;;7.93;70.69;101562.88;4975001;28;20027;-81
2022/03/29 00:50:29;;;;;;;9.68;4.78;;;;;;;7.89;70.76;101557.66;4974908;28;20023;-81
2022/03/29 00:52:56;;;;;;;9.67;4.87;;;;;;;7.87;70.64;101563.69;4974440;28;20058;-81
2022/03/29 00:55:21;;;;;;;11.02;5.30;;;;;;;7.84;72.11;101553.31;4974624;28;20031;-81
2022/03/29 00:57:50;;;;;;;12.17;5.47;;;;;;;7.81;69.55;101551.59;4974983;28;20154;-81
2022/03/29 01:00:16;;;;;;;10.88;5.22;;;;;;;7.80;69.08;101546.44;4974143;28;20042;-82
2022/03/29 01:02:44;;;;;;;11.63;5.32;;;;;;;7.77;70.20;101539.50;4975358;28;20081;-81
2022/03/29 01:05:10;;;;;;;15.07;6.85;;;;;;;7.77;72.06;101541.22;4975440;28;20030;-81
2022/03/29 01:07:36;;;;;;;13.43;6.03;;;;;;;7.75;69.85;101542.94;4973821;28;20026;-81
2022/03/29 01:10:02;;;;;;;12.40;5.67;;;;;;;7.75;69.78;101537.75;4974978;28;20027;-81
2022/03/29 01:12:32;;;;;;;11.35;5.25;;;;;;;7.70;70.83;101533.44;4974641;28;20034;-81
2022/03/29 01:14:58;;;;;;;8.90;4.68;;;;;;;7.69;71.48;101528.25;4973463;28;20427;-81
2022/03/29 01:17:39;;;;;;;7.53;3.93;;;;;;;7.67;70.57;101529.94;4974552;28;20038;-81
2022/03/29 01:20:20;;;;;;;12.25;5.43;;;;;;;7.60;70.70;101526.44;4974949;28;20031;-81
2022/03/29 01:22:48;;;;;;;13.13;5.90;;;;;;;7.63;71.08;101530.78;4974090;28;20026;-82
2022/03/29 01:25:18;;;;;;;13.43;5.78;;;;;;;7.57;70.99;101527.28;4974560;28;20098;-81
2022/03/29 01:27:46;;;;;;;12.27;5.70;;;;;;;7.56;70.53;101527.28;4974631;28;20431;-81
2022/03/29 01:30:13;;;;;;;13.00;5.72;;;;;;;7.54;70.24;101519.50;4974003;28;20094;-81
2022/03/29 01:32:44;;;;;;;11.95;5.45;;;;;;;7.52;71.76;101523.81;4973992;28;20039;-81
2022/03/29 01:35:11;;;;;;;11.88;5.32;;;;;;;7.52;70.99;101526.41;4973649;28;20471;-81
2022/03/29 01:37:39;;;;;;;12.27;5.32;;;;;;;7.52;71.08;101522.94;4974292;28;20470;-81
2022/03/29 01:40:13;;;;;;;11.68;5.35;;;;;;;7.51;70.89;101518.63;4974352;28;20033;-81
2022/03/29 01:42:41;;;;;;;9.95;4.90;;;;;;;7.49;69.79;101521.19;4973014;28;20038;-81
2022/03/29 01:45:07;;;;;;;11.05;5.10;;;;;;;7.47;72.18;101525.47;4974515;28;20038;-81
2022/03/29 01:47:32;;;;;;;14.40;6.30;;;;;;;7.41;73.20;101512.53;4973898;28;20030;-81
2022/03/29 01:49:57;;;;;;;12.33;5.70;;;;;;;7.36;72.15;101522.81;4973252;28;20356;-81
2022/03/29 01:52:22;;;;;;;14.60;6.50;;;;;;;7.30;75.93;101509.84;4973622;28;20142;-81
2022/03/29 01:54:48;;;;;;;18.33;8.30;;;;;;;7.25;76.56;101514.13;4974345;28;20053;-81
2022/03/29 01:57:14;;;;;;;17.23;7.90;;;;;;;7.21;74.38;101504.59;4973014;28;20070;-81
2022/03/29 02:02:23;;;;;;;22.02;11.20;;;;;;;7.09;75.21;101489.88;4974167;28;20112;-81
2022/03/29 02:04:48;;;;;;;19.83;10.30;;;;;;;7.06;77.50;101493.28;4973102;28;20478;-81
2022/03/29 02:07:14;;;;;;;22.87;12.13;;;;;;;6.99;79.16;101483.75;4974008;28;20049;-81
2022/03/29 02:09:42;;;;;;;24.45;13.13;;;;;;;6.92;79.34;101477.66;4973867;28;20027;-81
2022/03/29 02:12:09;;;;;;;26.35;14.90;;;;;;;6.91;79.97;101482.81;4973234;28;20034;-81
2022/03/29 02:14:35;;;;;;;26.45;15.10;;;;;;;6.84;78.72;101481.88;4973481;28;20023;-81
2022/03/29 02:17:00;;;;;;;28.02;15.20;;;;;;;6.82;81.11;101472.38;4973991;28;20090;-81
2022/03/29 02:19:26;;;;;;;27.23;16.13;;;;;;;6.75;80.08;101476.63;4972811;28;20018;-81
2022/03/29 02:21:51;;;;;;;24.38;13.43;;;;;;;6.76;80.01;101461.16;4973747;28;20037;-81
2022/03/29 02:24:16;;;;;;;24.73;13.73;;;;;;;6.78;78.74;101469.78;4973158;28;20034;-81
2022/03/29 02:26:42;;;;;;;23.98;12.98;;;;;;;6.78;80.20;101468.91;4973829;28;20081;-81
2022/03/29 02:29:07;;;;;;;27.40;16.20;;;;;;;6.68;82.12;101456.75;4973999;28;20039;-81
2022/03/29 02:31:32;;;;;;;28.77;17.02;;;;;;;6.70;79.37;101460.22;4972868;28;20031;-81
2022/03/29 02:33:57;;;;;;;28.48;15.68;;;;;;;6.69;81.86;101458.50;4973842;28;20031;-81
2022/03/29 02:36:23;;;;;;;29.63;16.48;;;;;;;6.67;81.87;101458.47;4973420;28;20030;-81
2022/03/29 02:38:48;;;;;;;32.75;19.17;;;;;;;6.59;83.27;101449.78;4973027;28;20419;-81
2022/03/29 02:41:13;;;;;;;27.55;16.23;;;;;;;6.61;79.82;101446.38;4973234;28;20035;-81
2022/03/29 02:43:38;;;;;;;27.90;16.43;;;;;;;6.62;82.64;101442.97;4973379;28;20062;-81
2022/03/29 02:46:04;;;;;;;30.10;17.47;;;;;;;6.61;80.39;101442.94;4973077;28;20490;-81
2022/03/29 02:48:30;;;;;;;27.70;15.97;;;;;;;6.59;82.03;101434.28;4973473;28;20038;-81
2022/03/29 02:50:56;;;;;;;32.08;19.58;;;;;;;6.54;83.00;101438.56;4973470;28;20442;-81
2022/03/29 02:53:22;;;;;;;33.25;19.52;;;;;;;6.53;82.07;101436.81;4972754;28;20066;-81
2022/03/29 02:55:47;;;;;;;26.90;15.48;;;;;;;6.54;80.75;101430.81;4973459;28;20468;-81
2022/03/29 02:58:12;;;;;;;26.98;15.82;;;;;;;6.56;82.59;101429.13;4973483;28;20035;-81
2022/03/29 03:00:38;;;;;;;33.05;19.60;;;;;;;6.49;84.32;101425.63;4972619;28;20027;-81
2022/03/29 03:03:04;;;;;;;35.60;22.23;;;;;;;6.44;84.02;101416.94;4976278;28;20019;-81
2022/03/29 03:05:29;;;;;;;33.85;20.13;;;;;;;6.44;83.45;101420.41;4976979;28;20051;-81
2022/03/29 03:07:54;;;;;;;34.33;21.20;;;;;;;6.44;84.25;101420.41;4976202;28;20399;-81
2022/03/29 03:10:20;;;;;;;34.85;20.90;;;;;;;6.42;82.94;101414.38;4977105;28;20027;-80
2022/03/29 03:12:48;;;;;;;30.67;18.20;;;;;;;6.43;83.78;101412.63;4977082;28;20038;-81
2022/03/29 03:15:16;;;;;;;35.90;21.63;;;;;;;6.40;84.42;101413.47;4976350;28;20022;-81
2022/03/29 03:17:41;;;;;;;37.88;23.30;;;;;;;6.35;85.24;101404.84;4977012;28;20023;-80
2022/03/29 03:20:07;;;;;;;38.17;22.83;;;;;;;6.28;85.81;101405.59;4976829;28;20591;-81
2022/03/29 03:22:35;;;;;;;37.65;23.73;;;;;;;6.26;85.75;101412.44;4975701;28;20099;-80
2022/03/29 03:25:01;;;;;;;39.10;24.67;;;;;;;6.25;85.58;101411.59;4976987;28;20039;-81
2022/03/29 03:27:26;;;;;;;38.80;23.80;;;;;;;6.21;85.55;101403.81;4975894;28;20027;-81
2022/03/29 03:29:51;;;;;;;36.17;22.65;;;;;;;6.25;85.72;101415.91;4976560;28;20026;-80
2022/03/29 03:32:17;;;;;;;40.78;25.38;;;;;;;6.19;86.33;101414.13;4976038;28;20043;-80
2022/03/29 03:34:42;;;;;;;37.73;23.40;;;;;;;6.17;84.83;101408.91;4975777;28;20082;-80
2022/03/29 03:37:08;;;;;;;35.42;21.17;;;;;;;6.20;85.32;101410.66;4976895;28;20055;-81
2022/03/29 03:39:37;;;;;;;35.72;21.98;;;;;;;6.19;85.18;101403.81;4976388;28;20160;-81
2022/03/29 03:42:06;;;;;;;35.13;21.85;;;;;;;6.17;85.82;101397.75;4975839;28;20515;-80
2022/03/29 03:44:31;;;;;;;36.63;22.70;;;;;;;6.16;86.33;101403.75;4975961;28;20467;-81
2022/03/29 03:46:57;;;;;;;36.70;23.52;;;;;;;6.09;86.07;101392.50;4975907;28;20038;-80
2022/03/29 03:49:23;;;;;;;41.60;26.00;;;;;;;6.05;87.02;101397.59;4975237;28;20077;-80
2022/03/29 03:51:48;;;;;;;42.03;25.70;;;;;;;6.04;85.94;101401.88;4976157;28;20058;-81
2022/03/29 03:54:13;;;;;;;35.78;22.95;;;;;;;6.02;85.48;101391.56;4976239;28;20055;-80
2022/03/29 03:56:39;;;;;;;40.42;25.40;;;;;;;5.99;86.56;101391.53;4975399;28;20054;-81
2022/03/29 03:59:05;;;;;;;39.17;24.20;;;;;;;5.98;86.97;101383.75;4976168;28;20035;-81
2022/03/29 04:01:30;;;;;;;38.97;24.38;;;;;;;5.92;87.27;101379.38;4975821;28;20027;-80
2022/03/29 04:03:55;;;;;;;41.13;26.10;;;;;;;5.92;87.03;101388.81;4975342;28;20035;-80
2022/03/29 04:06:21;;;;;;;39.13;24.95;;;;;;;5.91;87.13;101382.81;4976063;28;20090;-80
2022/03/29 04:08:46;;;;;;;39.80;24.40;;;;;;;5.90;86.73;101377.66;4976344;28;20081;-81
2022/03/29 04:11:11;;;;;;;36.58;22.77;;;;;;;5.90;86.17;101375.91;4975456;28;20031;-80
2022/03/29 04:13:37;;;;;;;45.72;27.65;;;;;;;5.85;87.53;101381.00;4975293;28;20085;-81
2022/03/29 04:16:03;;;;;;;41.08;25.25;;;;;;;5.83;86.96;101381.84;4975734;28;20034;-81
2022/03/29 04:18:29;;;;;;;41.22;25.42;;;;;;;5.81;88.16;101373.22;4974767;28;20121;-81
2022/03/29 04:20:54;;;;;;;41.03;27.25;;;;;;;5.77;88.21;101364.59;4975978;28;20476;-81
2022/03/29 04:23:20;;;;;;;41.30;26.38;;;;;;;5.76;87.60;101364.56;4975749;28;20483;-80
2022/03/29 04:25:46;;;;;;;42.10;27.40;;;;;;;5.70;87.90;101358.50;4975094;28;20077;-81
2022/03/29 04:28:11;;;;;;;44.00;27.87;;;;;;;5.64;88.54;101357.56;4975861;28;20028;-81
2022/03/29 04:30:37;;;;;;;47.20;29.97;;;;;;;5.62;88.66;101357.53;4975221;28;20475;-81
2022/03/29 04:33:02;;;;;;;42.00;26.65;;;;;;;5.62;87.96;101352.41;4974853;28;20023;-81
2022/03/29 04:35:28;;;;;;;42.25;26.98;;;;;;;5.56;88.63;101344.56;4975153;28;20034;-81
2022/03/29 04:37:53;;;;;;;39.38;24.33;;;;;;;5.61;87.76;101353.25;4975060;28;20026;-80
2022/03/29 04:40:19;;;;;;;38.37;24.00;;;;;;;5.63;87.00;101351.53;4974992;28;20463;-80
2022/03/29 04:42:47;;;;;;;39.20;23.98;;;;;;;5.64;87.96;101350.69;4975425;28;20034;-81
2022/03/29 04:45:13;;;;;;;41.35;25.80;;;;;;;5.59;88.07;101342.03;4974705;28;20058;-80
2022/03/29 04:47:40;;;;;;;41.30;25.70;;;;;;;5.61;88.74;101348.09;4975112;28;20645;-80
2022/03/29 04:50:14;;;;;;;42.72;26.63;;;;;;;5.60;88.60;101342.91;4975538;28;20050;-80
2022/03/29 04:52:44;;;;;;;37.63;23.77;;;;;;;5.63;87.16;101342.94;4974275;28;20055;-81
2022/03/29 04:55:10;;;;;;;40.17;24.52;;;;;;;5.58;88.12;101342.88;4975161;28;20060;-80
2022/03/29 04:57:35;;;;;;;36.75;22.98;;;;;;;5.59;87.29;101343.75;4974824;28;20031;-80
2022/03/29 05:00:01;;;;;;;34.17;20.63;;;;;;;5.59;86.90;101343.75;4974054;28;20029;-81
2022/03/29 05:02:29;;;;;;;32.63;20.67;;;;;;;5.57;86.31;101342.00;4975072;28;20085;-81
2022/03/29 05:04:54;;;;;;;36.70;22.70;;;;;;;5.54;87.74;101331.69;4974877;28;20058;-81
2022/03/29 05:07:22;;;;;;;46.28;28.65;;;;;;;5.39;89.03;101329.78;4973792;28;20039;-80
2022/03/29 05:09:48;;;;;;;43.78;27.63;;;;;;;5.40;88.31;101317.75;4974862;28;20077;-80
2022/03/29 05:12:13;;;;;;;45.53;28.88;;;;;;;5.28;89.35;101313.31;4975156;28;20495;-80
2022/03/29 05:14:38;;;;;;;43.92;28.00;;;;;;;5.21;89.44;101302.06;4973935;28;20065;-80
2022/03/29 05:17:03;;;;;;;44.17;27.48;;;;;;;5.19;89.37;101313.16;4975023;28;20027;-80
2022/03/29 05:19:29;;;;;;;46.65;28.40;;;;;;;5.14;89.82;101315.66;4974752;28;20115;-80
2022/03/29 05:21:57;;;;;;;49.38;31.25;;;;;;;5.05;91.37;101320.69;4974415;28;20030;-80
2022/03/29 05:24:22;;;;;;;46.70;28.58;;;;;;;5.04;90.66;101321.53;4973745;28;20368;-79
2022/03/29 05:26:48;;;;;;;51.92;32.38;;;;;;;4.95;91.87;101320.53;4974586;28;20030;-80
2022/03/29 05:29:13;;;;;;;52.25;30.48;;;;;;;4.97;91.72;101325.69;4973587;28;20093;-79
2022/03/29 05:31:39;;;;;;;45.60;27.70;;;;;;;5.01;91.62;101324.06;4974267;28;20058;-80
2022/03/29 05:34:07;;;;;;;43.95;26.80;;;;;;;5.03;91.28;101320.66;4973666;28;20538;-79
2022/03/29 05:36:32;;;;;;;51.15;30.48;;;;;;;5.05;91.71;101320.69;4974307;28;20043;-80
2022/03/29 05:38:57;;;;;;;46.22;28.35;;;;;;;5.03;91.29;101318.09;4982812;23;20059;-80
2022/03/29 05:41:22;;;;;;;45.08;27.00;;;;;;;5.10;91.17;101325.06;4993140;28;20034;-80
2022/03/29 05:43:48;;;;;;;42.33;24.95;;;;;;;5.13;90.25;101326.78;4992969;28;20046;-80
2022/03/29 05:48:59;;;;;;;43.70;24.67;;;;;;;5.23;90.83;101318.41;4993110;28;20040;-80
2022/03/29 05:51:27;;;;;;;43.00;25.67;;;;;;;5.26;91.32;101321.00;4993439;28;20034;-81
2022/03/29 05:53:53;;;;;;;44.50;26.35;;;;;;;5.29;91.15;101319.31;4993864;28;20076;-81
2022/03/29 05:56:20;;;;;;;53.35;31.85;;;;;;;5.24;91.90;101311.53;4992074;28;20041;-80
2022/03/29 05:58:45;;;;;;;47.15;27.63;;;;;;;5.26;91.48;101315.84;4993550;28;20037;-81
2022/03/29 06:01:10;;;;;;;46.97;28.55;;;;;;;5.27;91.76;101316.72;4993254;28;20483;-80
2022/03/29 06:03:36;;;;;;;49.92;29.17;;;;;;;5.25;91.36;101316.69;4992356;28;20041;-81
2022/03/29 06:06:01;;;;;;;52.90;31.38;;;;;;;5.24;92.27;101314.94;4993833;28;20426;-80
2022/03/29 06:08:26;;;;;;;54.42;31.88;;;;;;;5.19;92.76;101318.31;4993068;28;20459;-80
2022/03/29 06:10:53;;;;;;;55.20;31.58;;;;;;;5.13;93.24;101324.22;4992495;28;20022;-82
2022/03/29 06:13:19;;;;;;;57.17;33.00;;;;;;;5.08;93.59;101325.88;4993288;28;20015;-82
2022/03/29 06:15:44;;;;;;;57.30;32.63;;;;;;;5.01;94.04;101326.63;4993579;28;20493;-83
2022/03/29 06:18:09;;;;;;;54.22;31.63;;;;;;;5.03;93.93;101323.25;4992857;28;20022;-82
2022/03/29 06:20:34;;;;;;;53.97;30.65;;;;;;;5.05;93.55;101329.28;4993521;28;20038;-83
2022/03/29 06:23:00;;;;;;;49.50;27.92;;;;;;;5.10;93.61;101335.34;4993439;28;20093;-83
2022/03/29 06:25:25;;;;;;;53.30;30.40;;;;;;;5.09;93.65;101335.34;4992527;28;20069;-83
2022/03/29 06:35:28;;;;;;;57.20;30.60;;;;;;;5.18;93.62;101321.75;5853973;23;20506;-83
2022/03/29 06:37:58;;;;;;;57.33;31.75;;;;;;;5.18;93.91;101335.47;4996682;28;20109;-83
2022/03/29 06:40:28;;;;;;;56.03;31.67;;;;;;;5.20;93.78;101325.19;4997368;28;20044;-83
2022/03/29 06:42:55;;;;;;;48.08;26.10;;;;;;;5.27;92.74;101327.03;4997081;28;20065;-83
2022/03/29 06:45:20;;;;;;;;;;;;;;;5.33;92.99;101321.09;4996596;28;20110;-84
2022/03/29 06:47:47;;;;;;;60.97;31.43;;;;;;;5.23;93.66;101320.09;4997145;28;20000;-82
2022/03/29 06:50:12;;;;;;;58.97;32.53;;;;;;;5.18;93.77;101314.88;4996901;28;20029;-81
2022/03/29 06:52:41;;;;;;;57.30;30.58;;;;;;;5.20;93.26;101318.34;4995921;28;20026;-81
2022/03/29 06:55:08;;;;;;;52.40;28.50;;;;;;;5.23;93.72;101325.25;4997069;28;20073;-81
2022/03/29 06:57:33;;;;;;;;;;;;;;;5.18;94.45;101319.19;4996886;28;20117;-81
2022/03/29 06:59:58;;;;;;;63.23;32.87;;;;;;;5.12;94.51;101314.81;4996272;28;20000;-81
2022/03/29 07:02:24;;;;;;;57.63;32.00;;;;;;;5.14;94.58;101317.38;4996469;28;20022;-82
2022/03/29 07:04:50;;;;;;;55.28;30.90;;;;;;;5.17;94.16;101312.28;4996522;28;20386;-82
2022/03/29 07:07:18;;;;;;;49.20;25.35;;;;;;;5.25;93.24;101308.13;4995969;28;20037;-81
2022/03/29 07:12:30;;;;;;;59.70;31.15;;;;;;;5.34;94.08;101313.38;4996372;28;20049;-81
2022/03/29 07:14:58;;;;;;;63.92;33.20;;;;;;;5.28;94.38;101315.00;4996447;28;20031;-82
2022/03/29 07:17:26;;;;;;;64.95;33.38;;;;;;;5.25;94.47;101315.84;4996057;28;20360;-82
2022/03/29 07:19:54;;;;;;;67.20;34.67;;;;;;;5.15;95.20;101307.09;4995834;28;20022;-82
2022/03/29 07:22:19;;;;;;;66.65;35.63;;;;;;;5.13;95.21;101318.22;4996596;28;20041;-82
2022/03/29 07:24:47;;;;;;;58.65;31.83;;;;;;;5.18;95.08;101314.03;4996798;28;20027;-82
2022/03/29 07:27:13;;;;;;;60.97;32.67;;;;;;;5.13;94.94;101308.78;4995816;28;20019;-81
2022/03/29 07:29:39;;;;;;;65.25;34.15;;;;;;;5.10;95.26;101319.06;4995845;28;20129;-81
2022/03/29 07:32:05;;;;;;;68.40;36.63;;;;;;;5.01;95.84;101318.91;4996184;28;20030;-81
2022/03/29 07:34:35;;;;;;;68.70;35.23;;;;;;;5.05;96.06;101320.69;4995063;28;20034;-81
2022/03/29 07:37:02;;;;;;;68.53;34.70;;;;;;;5.06;96.44;101318.16;4996176;28;20054;-81
2022/03/29 07:39:27;;;;;;;;;;;;;;;5.15;95.29;101309.69;4996363;28;20030;-82
2022/03/29 07:41:52;;;;;;;63.50;30.50;;;;;;;5.25;95.40;101313.25;4995400;28;19914;-81
2022/03/29 07:44:18;;;;;;;66.70;33.90;;;;;;;5.23;94.87;101322.66;4995717;28;20470;-82
2022/03/29 07:46:43;;;;;;;62.85;32.88;;;;;;;5.32;95.06;101320.22;4995738;28;20018;-81
2022/03/29 07:49:08;;;;;;;70.40;34.37;;;;;;;5.28;94.70;101320.16;4994727;28;20034;-82
2022/03/29 07:51:34;;;;;;;69.68;34.13;;;;;;;5.27;94.87;101327.03;4995918;28;20142;-81
2022/03/29 07:53:59;;;;;;;73.10;36.47;;;;;;;5.25;95.13;101328.69;5761169;23;20337;-82
2022/03/29 07:56:24;;;;;;;71.55;33.78;;;;;;;5.26;94.87;101320.16;4993906;28;20126;-82
2022/03/29 07:58:50;;;;;;;78.97;36.33;;;;;;;5.28;95.14;101328.75;4995824;28;20045;-82
2022/03/29 08:01:15;;;;;;;75.07;33.95;;;;;;;5.31;95.08;101318.47;4995462;28;20035;-82
2022/03/29 08:03:42;;;;;;;75.20;35.92;;;;;;;5.29;94.55;101334.75;4994807;28;20574;-81
2022/03/29 08:06:09;;;;;;;66.43;32.50;;;;;;;5.32;94.88;101333.09;4995604;28;20026;-81
2022/03/29 08:08:34;;;;;;;61.75;29.50;;;;;;;5.40;94.35;101339.19;4995625;28;20125;-81
2022/03/29 08:11:00;;;;;;;55.00;27.30;;;;;;;5.50;93.78;101339.34;4994762;28;20109;-81
2022/03/29 08:13:25;;;;;;;70.97;31.60;;;;;;;5.54;93.94;101338.53;4995197;28;20105;-81
2022/03/29 08:15:53;;;;;;;66.40;29.98;;;;;;;5.62;93.65;101341.22;5003589;28;20030;-81
2022/03/29 08:18:19;;;;;;;72.88;34.90;;;;;;;5.60;93.71;101332.59;5001783;28;20018;-82
2022/03/29 08:20:45;;;;;;;64.47;31.77;;;;;;;5.67;93.38;101335.28;4995639;28;20462;-81
2022/03/29 08:23:12;;;;;;;68.90;32.72;;;;;;;5.68;93.26;101331.00;4994670;28;20178;-81
2022/03/29 08:25:39;;;;;;;71.00;34.03;;;;;;;5.68;93.28;101326.72;4994910;28;20037;-82
2022/03/29 08:28:06;;;;;;;77.97;37.08;;;;;;;5.70;93.15;101331.88;4994860;28;20046;-82
2022/03/29 08:30:33;;;;;;;75.07;35.72;;;;;;;5.66;93.34;101328.41;4994144;28;20467;-83
2022/03/29 08:36:01;;;;;;;69.70;31.60;;;;;;;5.52;93.81;101309.31;4976024;28;19925;-84
2022/03/29 08:38:27;;;;;;;64.88;31.40;;;;;;;5.56;94.18;101314.56;4992442;28;20475;-81
2022/03/29 08:40:57;;;;;;;70.60;33.53;;;;;;;5.52;94.40;101310.19;4994822;28;20022;-82
2022/03/29 08:43:29;;;;;;;62.40;30.77;;;;;;;5.63;93.94;101320.63;4994922;28;20387;-81
2022/03/29 08:45:55;;;;;;;63.85;31.15;;;;;;;5.70;93.70;101317.28;4994254;28;20134;-82
2022/03/29 08:48:26;;;;;;;68.40;34.03;;;;;;;5.67;94.35;101318.97;4994705;28;20061;-81
2022/03/29 08:50:55;;;;;;;67.35;33.38;;;;;;;5.69;94.25;101319.84;4994271;28;20549;-82
2022/03/29 08:53:20;;;;;;;65.63;33.47;;;;;;;5.69;93.97;101314.69;4993839;28;20113;-82
2022/03/29 08:55:47;;;;;;;71.22;34.28;;;;;;;5.75;94.10;101317.34;4994787;28;20048;-82
2022/03/29 08:58:14;;;;;;;67.30;32.08;;;;;;;5.76;93.75;101319.09;4994124;28;20102;-82
2022/03/29 09:00:41;;;;;;;73.47;34.47;;;;;;;5.74;93.78;101323.34;4994253;28;20502;-82
2022/03/29 09:03:07;;;;;;;70.95;34.08;;;;;;;5.72;94.06;101319.88;4994547;28;20038;-82
2022/03/29 09:05:32;;;;;;;63.88;29.80;;;;;;;5.77;93.78;101314.78;4993713;28;20399;-82
2022/03/29 09:08:01;;;;;;;64.15;31.85;;;;;;;5.87;93.96;101316.63;4994631;28;20459;-82
2022/03/29 09:10:46;;;;;;;65.60;32.28;;;;;;;5.92;93.60;101322.69;4994164;28;20093;-82
2022/03/29 09:13:17;;;;;;;60.10;29.85;;;;;;;6.02;93.08;101319.41;4993586;28;20510;-82
2022/03/29 09:15:42;;;;;;;55.70;27.15;;;;;;;6.14;92.39;101317.81;4994446;28;20113;-82
2022/03/29 09:18:09;;;;;;;49.75;25.13;;;;;;;6.24;91.71;101309.34;4994238;28;20102;-82
2022/03/29 09:20:34;;;;;;;48.70;24.70;;;;;;;6.35;91.54;101312.03;4992905;28;20039;-82
2022/03/29 09:23:00;;;;;;;57.47;28.07;;;;;;;6.39;91.38;101318.94;4994250;28;20022;-82
2022/03/29 09:25:36;;;;;;;70.67;33.50;;;;;;;6.26;91.13;101317.94;4994384;28;20058;-82
2022/03/29 09:28:12;;;;;;;66.30;31.80;;;;;;;6.25;90.86;101311.06;4993603;28;20030;-81
2022/03/29 09:30:49;;;;;;;68.20;33.50;;;;;;;6.24;91.50;101318.78;4994072;28;20109;-82
2022/03/29 09:33:20;;;;;;;59.17;29.17;;;;;;;6.30;91.32;101316.25;4993314;28;20038;-82
2022/03/29 09:36:05;;;;;;;64.28;32.78;;;;;;;6.31;91.40;101315.41;4994193;28;20109;-82
2022/03/29 09:38:36;;;;;;;66.72;33.25;;;;;;;6.20;91.69;101315.28;4993889;28;20026;-81
2022/03/29 09:41:03;;;;;;;57.47;31.35;;;;;;;6.20;91.82;101317.03;4993299;28;20026;-81
2022/03/29 09:43:29;;;;;;;58.28;29.85;;;;;;;6.28;91.89;101308.53;4993602;28;20030;-81
2022/03/29 09:45:59;;;;;;;62.55;33.67;;;;;;;6.16;92.05;101306.66;4993677;28;20054;-81
2022/03/29 09:48:41;;;;;;;63.03;33.22;;;;;;;6.18;91.88;101304.13;4992924;28;20034;-80
2022/03/29 09:51:15;;;;;;;55.78;28.55;;;;;;;6.24;91.85;101299.03;4993772;28;20431;-81
2022/03/29 09:53:51;;;;;;;58.58;31.73;;;;;;;6.22;91.81;101297.28;4993324;28;20057;-80
2022/03/29 09:56:20;;;;;;;56.58;32.03;;;;;;;6.23;91.71;101294.72;4993325;28;20491;-81
2022/03/29 09:59:00;;;;;;;58.72;32.75;;;;;;;6.29;91.70;101294.78;4993793;28;20026;-81
2022/03/29 10:01:26;;;;;;;57.65;31.88;;;;;;;6.34;91.36;101289.69;4992501;28;20026;-81
2022/03/29 10:03:53;;;;;;;55.77;30.80;;;;;;;6.41;91.33;101285.44;4993347;28;20093;-79
2022/03/29 10:06:24;;;;;;;58.88;31.48;;;;;;;6.38;91.50;101278.53;4993241;28;20026;-80
2022/03/29 10:11:38;;;;;;;54.03;29.27;;;;;;;6.39;91.10;101275.09;4992938;28;20036;-80
2022/03/29 10:14:06;;;;;;;53.97;30.77;;;;;;;6.34;90.96;101267.31;4993135;28;20757;-80
2022/03/29 10:16:32;;;;;;;54.35;29.92;;;;;;;6.38;91.16;101267.38;4992518;28;20041;-80
2022/03/29 10:18:58;;;;;;;53.03;29.37;;;;;;;6.42;90.94;101256.19;4993402;28;20475;-80
2022/03/29 10:21:23;;;;;;;51.20;29.30;;;;;;;6.42;91.14;101259.66;5041531;23;20051;-80
2022/03/29 10:23:49;;;;;;;55.38;30.77;;;;;;;6.54;91.01;101260.63;4973168;28;20031;-80
2022/03/29 10:26:21;;;;;;;47.90;27.30;;;;;;;6.59;90.39;101257.22;4973932;28;20031;-80
2022/03/29 10:28:47;;;;;;;51.70;29.05;;;;;;;6.65;90.08;101259.00;4973949;28;20030;-80
2022/03/29 10:31:29;;;;;;;47.28;27.48;;;;;;;6.88;89.43;101261.72;4973055;28;20026;-80
2022/03/29 10:34:17;;;;;;;47.00;26.25;;;;;;;7.07;89.13;101261.84;4974153;28;20023;-81
2022/03/29 10:37:01;;;;;;;50.45;28.80;;;;;;;7.18;88.28;101254.16;4973217;28;20050;-81
2022/03/29 10:39:46;;;;;;;52.53;28.92;;;;;;;7.20;87.86;101265.34;4973289;28;20030;-81
2022/03/29 10:42:32;;;;;;;48.45;27.65;;;;;;;7.23;88.03;101260.22;4974073;28;20400;-81
2022/03/29 10:44:58;;;;;;;;;;;;;;;7.27;87.66;101249.03;4974054;28;20027;-81
2022/03/29 10:47:28;;;;;;;48.53;27.10;;;;;;;7.35;86.94;101256.81;4973716;28;20389;-81
2022/03/29 10:49:53;;;;;;;48.90;28.08;;;;;;;7.34;86.70;101250.81;4973929;28;20046;-80
2022/03/29 10:52:21;;;;;;;48.10;28.00;;;;;;;7.38;86.99;101249.94;4972487;28;20460;-80
2022/03/29 10:54:47;;;;;;;47.03;27.48;;;;;;;7.46;86.84;101244.81;4973930;28;20114;-80
2022/03/29 10:57:24;;;;;;;50.57;29.73;;;;;;;7.52;86.66;101254.31;4973458;28;20066;-81
2022/03/29 11:00:10;;;;;;;55.40;31.25;;;;;;;7.45;86.47;101244.81;4972989;28;20023;-81
2022/03/29 11:02:36;;;;;;;50.10;28.73;;;;;;;7.42;86.42;101238.78;4973562;28;20035;-80
2022/03/29 11:05:07;;;;;;;48.78;29.35;;;;;;;7.49;85.77;101234.50;4972643;28;20042;-81
2022/03/29 11:08:11;;;;;;;49.00;29.17;;;;;;;7.60;85.86;101241.44;4973205;28;20181;-81
2022/03/29 11:10:39;;;;;;;53.15;31.35;;;;;;;7.50;85.63;101231.06;4973115;28;20030;-80
2022/03/29 11:13:26;;;;;;;55.58;32.10;;;;;;;7.51;85.50;101225.06;4972717;28;20035;-80
2022/03/29 11:15:52;;;;;;;55.38;31.65;;;;;;;7.51;85.79;101225.06;4973187;28;20506;-80
2022/03/29 11:18:30;;;;;;;50.65;29.48;;;;;;;7.73;85.36;101214.78;4973413;28;20472;-80
2022/03/29 11:21:02;;;;;;;55.08;32.97;;;;;;;7.80;84.69;101216.50;4972640;28;20066;-80
2022/03/29 11:23:35;;;;;;;51.00;31.45;;;;;;;7.94;84.96;101213.09;4975013;28;20037;-81
2022/03/29 11:26:10;;;;;;;47.83;28.90;;;;;;;8.16;84.91;101211.41;4976463;28;20022;-80
2022/03/29 11:28:36;;;;;;;45.13;27.17;;;;;;;8.39;83.47;101195.88;4976922;28;20031;-83
2022/03/29 11:31:02;;;;;;;49.47;30.63;;;;;;;8.52;81.85;101201.94;4977637;28;20078;-81
2022/03/29 11:33:31;;;;;;;49.47;31.13;;;;;;;8.49;80.06;101205.38;4975843;28;20467;-81
2022/03/29 11:35:56;;;;;;;48.67;30.77;;;;;;;8.39;80.19;101201.06;4976815;28;20121;-81
2022/03/29 11:38:21;;;;;;;46.97;29.50;;;;;;;8.58;81.07;101195.88;4976450;28;20067;-80
2022/03/29 11:40:47;;;;;;;43.40;27.83;;;;;;;8.78;80.85;101183.78;4976173;28;20027;-81
2022/03/29 11:43:14;;;;;;;38.80;24.70;;;;;;;9.02;80.81;101192.34;4976659;28;20041;-81